In Rescue
 
Open Full Screen Window  High Contrast Mode
November 20, 2019 2:00 AM EST
Present Weather: Mist
Weather Information
Wind Direction
  ---
Wind Speed
  00 kt (0 mph)
Wind Gust
  00 kt (0 mph)
Altimeter
30.01 in
Visibility
5 SM
Temperature
00° C
32° F
Dewpoint
00° C
32° F
Humidity
100%
Sky Condition
Overcast @ 4,100 ft
Broken @ 1,900 ft
MVFR

METAR KACB 200700Z AUTO 00000KT 5SM BR BKN019 OVC041 00/00 A3001 RMK AO2 T00041002

FAA Disclaimer: The data displayed is for advisory purposes only and is not to be used for flight planning or operations.